Time;durP1;ratioP1;P1;durP2;ratioP2;P2;SDS_P1;SDS_P2;PMS_P1;PMS_P2;Temp;Humidity;BMP_temperature;BMP_pressure;BME280_temperature;BME280_humidity;BME280_pressure;Samples;Min_cycle;Max_cycle;Signal;HPM_P1;HPM_P2
2023/09/16 00:01:28;;;;;;;7.32;5.72;;;16.30;99.90;;;;;;5062655;28;20197;-73
2023/09/16 00:03:55;;;;;;;6.97;5.93;;;16.30;99.90;;;;;;5052623;28;20202;-71
2023/09/16 00:06:22;;;;;;;6.80;6.15;;;16.30;99.90;;;;;;5054687;28;20251;-72
2023/09/16 00:08:49;;;;;;;7.50;6.30;;;16.30;99.90;;;;;;5053729;28;20298;-73
2023/09/16 00:11:16;;;;;;;9.93;6.03;;;16.30;99.90;;;;;;5055475;28;20264;-76
2023/09/16 00:13:43;;;;;;;7.00;4.75;;;16.30;99.90;;;;;;5056104;28;20217;-71
2023/09/16 00:16:12;;;;;;;5.97;5.47;;;16.30;99.90;;;;;;5059219;28;20675;-71
2023/09/16 00:18:40;;;;;;;7.78;5.22;;;16.30;99.90;;;;;;5061253;28;20557;-72
2023/09/16 00:21:07;;;;;;;5.57;5.07;;;16.40;99.90;;;;;;5052698;28;20236;-71
2023/09/16 00:23:34;;;;;;;5.72;4.82;;;16.40;99.90;;;;;;5061371;28;20200;-71
2023/09/16 00:26:03;;;;;;;8.60;5.47;;;16.40;99.90;;;;;;5055342;28;20311;-70
2023/09/16 00:28:30;;;;;;;6.25;5.65;;;16.50;99.90;;;;;;5048393;28;20672;-74
2023/09/16 00:31:00;;;;;;;8.57;5.10;;;16.50;99.90;;;;;;5050065;28;20202;-73
2023/09/16 00:33:31;;;;;;;6.05;5.45;;;16.50;99.90;;;;;;5047956;28;20204;-72
2023/09/16 00:35:59;;;;;;;8.68;6.10;;;16.50;99.90;;;;;;5051412;28;20223;-74
2023/09/16 00:38:27;;;;;;;8.75;5.05;;;16.50;99.90;;;;;;5053929;28;20225;-73
2023/09/16 00:40:53;;;;;;;5.05;4.55;;;16.50;99.90;;;;;;5055093;28;20230;-74
2023/09/16 00:43:20;;;;;;;6.97;4.53;;;16.50;99.90;;;;;;5058454;28;20291;-70
2023/09/16 00:45:47;;;;;;;7.20;5.85;;;16.50;99.90;;;;;;5062780;28;20270;-69
2023/09/16 00:48:17;;;;;;;8.48;6.05;;;16.50;99.90;;;;;;5061361;28;20205;-69
2023/09/16 00:50:45;;;;;;;5.45;4.95;;;16.50;99.90;;;;;;5063288;28;20300;-71
2023/09/16 00:53:16;;;;;;;6.72;5.80;;;16.40;99.90;;;;;;5059898;28;20279;-74
2023/09/16 00:55:44;;;;;;;7.70;6.28;;;16.40;99.90;;;;;;5052810;28;20301;-73
2023/09/16 00:58:11;;;;;;;8.75;6.50;;;16.40;99.90;;;;;;5050356;28;20232;-71
2023/09/16 01:00:39;;;;;;;10.20;7.90;;;16.40;99.90;;;;;;5052936;28;20242;-75
2023/09/16 01:03:06;;;;;;;9.07;5.78;;;16.40;99.90;;;;;;5054160;28;20235;-74
2023/09/16 01:05:35;;;;;;;9.82;6.10;;;16.40;99.90;;;;;;5052863;28;20215;-71
2023/09/16 01:08:03;;;;;;;7.70;5.60;;;16.40;99.90;;;;;;5050246;28;20212;-72
2023/09/16 01:10:32;;;;;;;6.57;5.05;;;16.40;99.90;;;;;;5051111;28;20682;-71
2023/09/16 01:12:59;;;;;;;9.40;6.35;;;16.40;99.90;;;;;;5051558;28;20714;-74
2023/09/16 01:15:33;;;;;;;5.40;4.90;;;16.30;99.90;;;;;;5052854;28;20197;-74
2023/09/16 01:18:07;;;;;;;5.90;5.30;;;16.30;99.90;;;;;;5052462;28;20671;-73
2023/09/16 01:20:35;;;;;;;5.82;5.32;;;16.30;99.90;;;;;;5051953;28;20213;-71
2023/09/16 01:23:02;;;;;;;8.05;5.57;;;16.20;99.90;;;;;;5050692;28;20237;-74
2023/09/16 01:25:30;;;;;;;5.68;4.88;;;16.20;99.90;;;;;;5045314;28;20233;-72
2023/09/16 01:28:00;;;;;;;5.47;4.78;;;16.20;99.90;;;;;;5045477;28;20200;-73
2023/09/16 01:30:30;;;;;;;5.10;4.60;;;16.10;99.90;;;;;;5051068;28;20214;-74
2023/09/16 01:33:02;;;;;;;7.22;6.53;;;16.10;99.90;;;;;;5044454;28;20673;-71
2023/09/16 01:35:35;;;;;;;5.88;5.28;;;16.10;99.90;;;;;;5052283;28;20226;-74
2023/09/16 01:38:03;;;;;;;5.60;5.05;;;16.10;99.90;;;;;;5045539;28;20204;-70
2023/09/16 01:40:33;;;;;;;6.20;5.20;;;16.10;99.90;;;;;;5052125;28;20227;-72
2023/09/16 01:43:02;;;;;;;5.55;4.95;;;16.00;99.90;;;;;;5048912;28;20635;-72
2023/09/16 01:45:40;;;;;;;8.15;5.80;;;16.00;99.90;;;;;;5053173;28;20227;-72
2023/09/16 01:48:07;;;;;;;7.32;6.18;;;16.00;99.90;;;;;;5046522;28;20338;-69
2023/09/16 01:50:34;;;;;;;6.22;5.00;;;16.00;99.90;;;;;;5052280;28;20246;-73
2023/09/16 01:53:02;;;;;;;6.97;5.80;;;15.90;99.90;;;;;;5052362;28;20200;-74
2023/09/16 01:55:31;;;;;;;6.43;5.13;;;15.90;99.90;;;;;;5052920;28;20227;-74
2023/09/16 01:57:59;;;;;;;6.45;5.10;;;15.90;99.90;;;;;;5043773;28;20279;-74
2023/09/16 02:00:26;;;;;;;6.10;5.47;;;15.80;99.90;;;;;;5052161;28;20314;-72
2023/09/16 02:02:53;;;;;;;7.68;6.00;;;15.80;99.90;;;;;;5044343;28;20242;-71
2023/09/16 02:05:21;;;;;;;8.60;6.45;;;15.80;99.90;;;;;;5052075;28;20227;-70
2023/09/16 02:07:47;;;;;;;9.45;7.25;;;15.80;99.90;;;;;;5047000;28;20234;-73
2023/09/16 02:10:14;;;;;;;8.52;7.13;;;15.80;99.90;;;;;;5051732;28;20279;-75
2023/09/16 02:12:43;;;;;;;11.20;7.95;;;15.80;99.90;;;;;;5050507;28;20279;-73
2023/09/16 02:15:11;;;;;;;13.70;8.90;;;15.70;99.90;;;;;;5052217;28;20724;-74
2023/09/16 02:17:38;;;;;;;9.95;7.47;;;15.70;99.90;;;;;;5037940;28;20237;-73
2023/09/16 02:20:09;;;;;;;13.40;7.10;;;15.70;99.90;;;;;;5050888;28;20585;-72
2023/09/16 02:22:36;;;;;;;11.10;7.97;;;15.60;99.90;;;;;;5044214;28;20232;-74
2023/09/16 02:25:03;;;;;;;11.32;7.28;;;15.60;99.90;;;;;;5052170;28;20634;-74
2023/09/16 02:27:32;;;;;;;10.63;8.07;;;15.70;99.90;;;;;;5047791;28;20306;-74
2023/09/16 02:30:00;;;;;;;11.23;8.18;;;15.70;99.90;;;;;;5042018;28;20211;-70
2023/09/16 02:32:27;;;;;;;8.73;7.45;;;15.60;99.90;;;;;;5049592;28;20235;-70
2023/09/16 02:34:57;;;;;;;7.82;6.25;;;15.60;99.90;;;;;;5039320;28;20346;-71
2023/09/16 02:37:25;;;;;;;8.95;7.15;;;15.60;99.90;;;;;;5050035;28;20228;-70
2023/09/16 02:39:52;;;;;;;7.90;6.65;;;15.60;99.90;;;;;;5045272;28;20233;-73
2023/09/16 02:42:18;;;;;;;7.28;6.57;;;15.60;99.90;;;;;;5050106;28;20207;-72
2023/09/16 02:44:45;;;;;;;8.90;6.80;;;15.50;99.90;;;;;;5044169;28;20563;-73
2023/09/16 02:47:15;;;;;;;7.03;5.30;;;15.50;99.90;;;;;;5047955;28;20314;-75
2023/09/16 02:49:42;;;;;;;6.43;5.45;;;15.60;99.90;;;;;;5049793;28;20203;-73
2023/09/16 02:52:09;;;;;;;7.40;6.30;;;15.60;99.90;;;;;;5047784;28;20203;-74
2023/09/16 02:54:36;;;;;;;9.60;6.68;;;15.50;99.90;;;;;;5051879;28;20200;-72
2023/09/16 02:57:04;;;;;;;5.90;5.07;;;15.50;99.90;;;;;;5049379;28;20603;-75
2023/09/16 02:59:31;;;;;;;7.82;6.22;;;15.50;99.90;;;;;;5051720;28;20231;-74
2023/09/16 03:01:58;;;;;;;6.22;5.63;;;15.40;99.90;;;;;;5046306;28;20204;-72
2023/09/16 03:04:26;;;;;;;6.65;5.70;;;15.40;99.90;;;;;;5051955;28;20291;-72
2023/09/16 03:06:54;;;;;;;7.18;5.90;;;15.40;99.90;;;;;;5046667;28;20317;-71
2023/09/16 03:09:21;;;;;;;6.80;5.72;;;15.40;99.90;;;;;;5056414;28;20227;-71
2023/09/16 03:11:49;;;;;;;7.53;5.85;;;15.40;99.90;;;;;;5055394;28;20199;-72
2023/09/16 03:14:15;;;;;;;8.77;7.97;;;15.40;99.90;;;;;;5055886;28;20236;-73
2023/09/16 03:16:43;;;;;;;6.40;5.82;;;15.40;99.90;;;;;;5050760;28;20303;-70
2023/09/16 03:19:10;;;;;;;7.10;5.80;;;15.40;99.90;;;;;;5043518;28;20287;-71
2023/09/16 03:21:38;;;;;;;6.32;5.82;;;15.40;99.90;;;;;;5054126;28;20204;-73
2023/09/16 03:24:05;;;;;;;7.63;6.80;;;15.40;99.90;;;;;;5055413;28;20235;-71
2023/09/16 03:26:32;;;;;;;7.45;6.75;;;15.40;99.90;;;;;;5047291;28;20228;-74
2023/09/16 03:28:59;;;;;;;8.63;6.28;;;15.40;99.90;;;;;;5052365;28;20291;-72
2023/09/16 03:31:26;;;;;;;7.40;6.70;;;15.30;99.90;;;;;;5058383;28;20267;-71
2023/09/16 03:33:54;;;;;;;7.28;6.30;;;15.30;99.90;;;;;;5066535;28;20282;-70
2023/09/16 03:36:22;;;;;;;6.30;5.70;;;15.30;99.90;;;;;;5065482;28;20249;-68
2023/09/16 03:38:51;;;;;;;6.68;5.90;;;15.30;99.90;;;;;;5063504;28;20217;-73
2023/09/16 03:41:18;;;;;;;6.53;5.93;;;15.30;99.90;;;;;;5051613;28;20287;-72
2023/09/16 03:43:45;;;;;;;6.45;5.57;;;15.30;99.90;;;;;;5041548;28;20212;-72
2023/09/16 03:46:12;;;;;;;6.93;5.70;;;15.20;99.90;;;;;;5048107;28;20277;-72
2023/09/16 03:48:39;;;;;;;8.30;6.78;;;15.20;99.90;;;;;;5051685;28;20235;-75
2023/09/16 03:51:08;;;;;;;6.68;5.80;;;15.20;99.90;;;;;;5054084;28;20287;-73
2023/09/16 03:53:35;;;;;;;7.05;6.18;;;15.20;99.90;;;;;;5055246;28;20261;-74
2023/09/16 03:56:06;;;;;;;8.27;6.22;;;15.20;99.90;;;;;;5050645;28;20627;-72
2023/09/16 03:58:34;;;;;;;7.03;6.38;;;15.20;99.90;;;;;;5046990;28;20211;-72
2023/09/16 04:01:02;;;;;;;7.30;6.07;;;15.10;99.90;;;;;;5054585;28;20211;-71
2023/09/16 04:03:30;;;;;;;8.85;6.00;;;15.20;99.90;;;;;;5054014;28;20649;-72
2023/09/16 04:05:58;;;;;;;8.40;6.57;;;15.20;99.90;;;;;;5045342;28;20235;-72
2023/09/16 04:08:26;;;;;;;6.47;5.97;;;15.20;99.90;;;;;;5053522;28;20214;-75
2023/09/16 04:10:54;;;;;;;7.93;5.80;;;15.10;99.90;;;;;;5053270;28;20210;-73
2023/09/16 04:13:23;;;;;;;7.20;6.15;;;15.10;99.90;;;;;;5050884;28;20214;-74
2023/09/16 04:15:51;;;;;;;6.20;5.60;;;15.10;99.90;;;;;;5054213;28;20747;-74
2023/09/16 04:18:19;;;;;;;6.90;6.20;;;15.00;99.90;;;;;;5051870;28;20200;-73
2023/09/16 04:20:48;;;;;;;8.63;6.40;;;15.00;99.90;;;;;;5051905;28;20564;-74
2023/09/16 04:23:15;;;;;;;6.10;5.50;;;15.00;99.90;;;;;;5050586;28;20610;-72
2023/09/16 04:25:42;;;;;;;6.57;6.07;;;15.10;99.90;;;;;;5045401;28;20228;-74
2023/09/16 04:28:09;;;;;;;8.73;5.80;;;15.00;99.90;;;;;;5050336;28;20208;-74
2023/09/16 04:30:40;;;;;;;6.38;5.78;;;15.00;99.90;;;;;;5051434;28;20541;-71
2023/09/16 04:33:10;;;;;;;7.75;6.90;;;15.00;99.90;;;;;;5042577;28;20204;-74
2023/09/16 04:35:43;;;;;;;9.43;7.10;;;15.00;99.90;;;;;;5049696;28;20224;-74
2023/09/16 04:38:11;;;;;;;6.15;5.50;;;15.00;99.90;;;;;;5046421;28;20207;-73
2023/09/16 04:40:38;;;;;;;7.72;6.93;;;15.00;99.90;;;;;;5053465;28;20199;-71
2023/09/16 04:43:06;;;;;;;6.63;6.03;;;14.90;99.90;;;;;;5052907;28;20621;-72
2023/09/16 04:45:32;;;;;;;7.95;7.15;;;14.90;99.90;;;;;;5044603;28;20670;-72
2023/09/16 04:48:01;;;;;;;8.27;7.57;;;15.00;99.90;;;;;;5046397;28;20765;-75
2023/09/16 04:50:28;;;;;;;6.70;6.10;;;15.00;99.90;;;;;;5044039;28;20204;-71
2023/09/16 04:52:55;;;;;;;6.78;6.18;;;15.00;99.90;;;;;;5051021;28;20692;-72
2023/09/16 04:55:22;;;;;;;7.88;6.63;;;15.10;99.90;;;;;;5050105;28;20249;-72
2023/09/16 04:57:49;;;;;;;7.05;6.35;;;15.10;99.90;;;;;;5052153;28;20609;-70
2023/09/16 05:00:17;;;;;;;10.88;6.75;;;15.20;99.90;;;;;;5048307;28;20227;-72
2023/09/16 05:02:47;;;;;;;7.30;6.03;;;15.20;99.90;;;;;;5045460;28;20596;-72
2023/09/16 05:05:16;;;;;;;7.15;6.38;;;15.20;99.90;;;;;;5050663;28;20210;-75
2023/09/16 05:07:43;;;;;;;7.25;6.55;;;15.20;99.90;;;;;;5049204;28;20227;-74
2023/09/16 05:10:11;;;;;;;8.63;5.93;;;15.30;99.90;;;;;;5052685;28;20204;-74
2023/09/16 05:12:38;;;;;;;7.13;6.15;;;15.30;99.90;;;;;;5053742;28;20200;-73
2023/09/16 05:15:06;;;;;;;7.10;6.40;;;15.30;99.90;;;;;;5052954;28;20203;-73
2023/09/16 05:17:33;;;;;;;6.60;5.93;;;15.40;99.90;;;;;;5040346;28;20311;-74
2023/09/16 05:20:01;;;;;;;8.20;6.32;;;15.40;99.90;;;;;;5050206;28;20257;-73
2023/09/16 05:22:29;;;;;;;7.07;6.20;;;15.50;99.90;;;;;;5053435;28;20203;-72
2023/09/16 05:24:56;;;;;;;7.47;6.78;;;15.50;99.90;;;;;;5049320;28;20631;-75
2023/09/16 05:27:23;;;;;;;6.57;5.88;;;15.60;99.90;;;;;;5047207;28;20223;-75
2023/09/16 05:29:51;;;;;;;7.32;6.63;;;15.60;99.90;;;;;;5038867;28;20212;-74
2023/09/16 05:32:18;;;;;;;7.50;5.78;;;15.60;99.90;;;;;;5045228;28;20210;-71
2023/09/16 05:34:46;;;;;;;9.23;6.97;;;15.70;99.90;;;;;;5041841;28;20294;-73
2023/09/16 05:37:13;;;;;;;8.52;6.55;;;15.80;99.90;;;;;;5043061;28;20307;-75
2023/09/16 05:39:41;;;;;;;8.13;7.43;;;15.80;99.90;;;;;;5052064;28;20209;-72
2023/09/16 05:42:08;;;;;;;7.45;6.30;;;15.80;99.90;;;;;;5053382;28;20298;-70
2023/09/16 05:44:36;;;;;;;8.30;6.97;;;15.90;99.90;;;;;;5053110;28;20300;-72
2023/09/16 05:47:03;;;;;;;9.07;6.65;;;16.00;99.90;;;;;;5049750;28;20224;-72
2023/09/16 05:49:31;;;;;;;7.65;6.85;;;16.10;99.90;;;;;;5049141;28;20240;-70
2023/09/16 05:51:58;;;;;;;7.15;6.45;;;16.20;99.90;;;;;;5050206;28;20217;-75
2023/09/16 05:54:27;;;;;;;7.40;6.00;;;16.20;99.90;;;;;;5043110;28;20237;-74
2023/09/16 05:56:55;;;;;;;7.68;6.97;;;16.30;99.90;;;;;;5043059;28;20316;-71
2023/09/16 05:59:22;;;;;;;8.30;7.60;;;16.30;99.90;;;;;;5052516;28;20244;-72
2023/09/16 06:01:49;;;;;;;8.55;7.43;;;16.30;99.90;;;;;;5050718;28;20208;-74
2023/09/16 06:04:16;;;;;;;6.82;5.75;;;16.30;99.90;;;;;;5050923;28;20216;-74
2023/09/16 06:06:43;;;;;;;7.03;5.60;;;16.30;99.90;;;;;;5052827;28;20224;-70
2023/09/16 06:09:10;;;;;;;7.72;5.75;;;16.30;99.90;;;;;;5052600;28;20274;-71
2023/09/16 06:11:37;;;;;;;6.80;6.10;;;16.20;99.90;;;;;;5056943;28;20212;-71
2023/09/16 06:14:06;;;;;;;10.38;6.60;;;16.30;99.90;;;;;;5052888;28;20209;-71
2023/09/16 06:16:33;;;;;;;8.38;7.55;;;16.30;99.90;;;;;;5054534;28;20287;-72
2023/09/16 06:19:00;;;;;;;7.53;6.70;;;16.30;99.90;;;;;;5051895;28;20318;-72
2023/09/16 06:21:30;;;;;;;9.68;7.03;;;16.30;99.90;;;;;;5062687;28;20238;-68
2023/09/16 06:23:57;;;;;;;7.25;6.53;;;16.20;99.90;;;;;;5054533;28;20196;-74
2023/09/16 06:26:24;;;;;;;7.55;6.85;;;16.20;99.90;;;;;;5059286;28;20255;-72
2023/09/16 06:28:52;;;;;;;7.20;6.43;;;16.20;99.90;;;;;;5062206;28;20213;-71
2023/09/16 06:31:21;;;;;;;10.45;6.63;;;16.20;99.90;;;;;;5045130;28;20271;-74
2023/09/16 06:33:49;;;;;;;8.50;7.05;;;16.10;99.90;;;;;;5050963;28;20209;-70
2023/09/16 06:36:18;;;;;;;8.45;7.55;;;16.20;99.90;;;;;;5047697;28;20225;-74
2023/09/16 06:38:45;;;;;;;7.53;6.82;;;16.30;99.90;;;;;;5045458;28;20257;-72
2023/09/16 06:41:11;;;;;;;8.13;7.30;;;16.20;99.90;;;;;;5037745;28;20709;-74
2023/09/16 06:43:38;;;;;;;8.27;7.40;;;16.30;99.90;;;;;;5041392;28;20205;-74
2023/09/16 06:46:06;;;;;;;7.22;6.43;;;16.40;99.90;;;;;;5043969;28;20261;-73
2023/09/16 06:48:34;;;;;;;8.25;7.40;;;16.40;99.90;;;;;;5047881;28;20290;-72
2023/09/16 06:51:03;;;;;;;8.95;6.70;;;16.40;99.90;;;;;;5052374;28;20260;-73
2023/09/16 06:53:31;;;;;;;7.20;6.50;;;16.60;99.90;;;;;;5052042;28;20204;-71
2023/09/16 06:55:58;;;;;;;8.40;6.93;;;16.60;99.90;;;;;;5060173;28;20258;-72
2023/09/16 06:58:25;;;;;;;10.40;7.30;;;16.70;99.90;;;;;;5050156;28;20309;-74
2023/09/16 07:00:52;;;;;;;7.15;6.32;;;16.70;99.90;;;;;;5046152;28;20224;-71
2023/09/16 07:03:19;;;;;;;7.40;6.70;;;16.80;99.90;;;;;;5055415;28;20723;-72
2023/09/16 07:05:48;;;;;;;9.98;7.40;;;16.90;99.90;;;;;;5054883;28;20352;-72
2023/09/16 07:08:17;;;;;;;8.02;6.82;;;16.90;99.90;;;;;;5043493;28;20225;-71
2023/09/16 07:10:43;;;;;;;9.35;7.40;;;16.90;99.90;;;;;;5047466;28;20205;-74
2023/09/16 07:13:10;;;;;;;8.75;7.40;;;17.00;99.90;;;;;;5044350;28;20233;-74
2023/09/16 07:15:38;;;;;;;8.20;7.40;;;17.00;99.90;;;;;;5053224;28;20232;-73
2023/09/16 07:18:05;;;;;;;7.93;7.05;;;17.00;99.90;;;;;;5041539;28;20629;-74
2023/09/16 07:20:32;;;;;;;7.82;7.13;;;17.10;99.90;;;;;;5050036;28;20248;-75
2023/09/16 07:23:01;;;;;;;9.55;7.15;;;17.10;99.90;;;;;;5053198;28;20716;-73
2023/09/16 07:25:28;;;;;;;8.07;6.93;;;17.10;99.90;;;;;;5047158;28;20264;-73
2023/09/16 07:27:55;;;;;;;8.55;6.68;;;17.10;99.90;;;;;;5052527;28;20682;-73
2023/09/16 07:30:22;;;;;;;12.60;8.45;;;17.10;99.90;;;;;;5050923;28;20211;-72
2023/09/16 07:32:50;;;;;;;8.30;7.30;;;17.20;99.90;;;;;;5050116;28;20273;-73
2023/09/16 07:35:17;;;;;;;8.03;7.30;;;17.20;99.90;;;;;;5043249;28;20197;-73
2023/09/16 07:37:44;;;;;;;8.30;7.20;;;17.30;99.90;;;;;;5047088;28;20523;-72
2023/09/16 07:40:13;;;;;;;7.50;6.57;;;17.30;99.90;;;;;;5050630;28;20447;-70
2023/09/16 07:42:40;;;;;;;8.33;6.63;;;17.40;99.90;;;;;;5054060;28;20512;-74
2023/09/16 07:45:08;;;;;;;7.78;6.93;;;17.50;99.90;;;;;;5054582;28;20943;-73
2023/09/16 07:47:35;;;;;;;7.53;6.70;;;17.60;99.90;;;;;;5042812;28;20236;-72
2023/09/16 07:50:03;;;;;;;9.83;6.20;;;17.70;99.90;;;;;;5040137;28;20515;-73
2023/09/16 07:52:30;;;;;;;7.97;7.17;;;17.80;99.90;;;;;;5044557;28;20453;-73
2023/09/16 07:54:58;;;;;;;7.70;7.00;;;17.70;99.90;;;;;;5052228;28;20472;-71
2023/09/16 07:57:28;;;;;;;7.50;6.80;;;17.80;99.90;;;;;;5042811;28;20500;-75
2023/09/16 07:59:55;;;;;;;10.37;6.43;;;17.70;99.90;;;;;;5050483;28;20459;-74
2023/09/16 08:02:22;;;;;;;8.73;7.83;;;17.80;99.90;;;;;;5045472;28;20446;-73
2023/09/16 08:04:50;;;;;;;8.67;6.73;;;17.90;99.90;;;;;;5044151;28;21054;-77
2023/09/16 08:07:18;;;;;;;7.30;6.60;;;18.00;99.90;;;;;;5049692;28;20579;-71
2023/09/16 08:09:44;;;;;;;12.27;7.73;;;18.00;99.90;;;;;;5041082;28;20474;-69
2023/09/16 08:12:12;;;;;;;8.30;7.17;;;18.10;99.90;;;;;;5046041;28;20444;-70
2023/09/16 08:14:41;;;;;;;8.87;7.77;;;18.10;99.90;;;;;;5048763;28;20892;-71
2023/09/16 08:17:09;;;;;;;7.70;6.90;;;18.10;99.90;;;;;;5046986;28;20462;-68
2023/09/16 08:19:35;;;;;;;7.50;6.20;;;18.30;99.90;;;;;;5049556;28;20516;-71
2023/09/16 08:22:02;;;;;;;11.37;6.53;;;18.50;99.90;;;;;;5049474;28;20452;-73
2023/09/16 08:24:30;;;;;;;8.70;6.73;;;18.50;99.90;;;;;;5053576;28;20446;-72
2023/09/16 08:26:57;;;;;;;11.03;7.07;;;18.60;99.90;;;;;;5053803;28;21029;-72
2023/09/16 08:29:24;;;;;;;7.23;6.50;;;18.70;99.90;;;;;;5047667;28;20442;-71
2023/09/16 08:31:54;;;;;;;10.23;9.20;;;18.70;99.90;;;;;;5053258;28;20436;-70
2023/09/16 08:34:21;;;;;;;6.87;6.17;;;18.60;99.90;;;;;;5044413;28;20952;-69
2023/09/16 08:36:54;;;;;;;7.47;6.37;;;18.70;99.90;;;;;;5053441;28;20516;-71
2023/09/16 08:39:20;;;;;;;7.93;6.50;;;18.70;99.90;;;;;;5048102;28;20567;-72
2023/09/16 08:41:55;;;;;;;8.63;6.50;;;18.80;99.90;;;;;;5052260;28;20517;-72
2023/09/16 08:44:24;;;;;;;8.40;6.93;;;18.70;99.90;;;;;;5051444;28;20779;-72
2023/09/16 08:46:58;;;;;;;7.60;6.80;;;18.80;99.90;;;;;;5047342;28;20516;-71
2023/09/16 08:49:27;;;;;;;8.43;5.87;;;18.70;99.90;;;;;;5053573;28;20445;-70
2023/09/16 08:52:00;;;;;;;8.50;6.83;;;18.80;99.90;;;;;;5051136;28;20435;-72
2023/09/16 08:54:30;;;;;;;7.60;6.70;;;18.80;99.90;;;;;;5049515;28;20442;-69
2023/09/16 08:56:58;;;;;;;7.83;7.10;;;18.90;99.90;;;;;;5048846;28;20458;-69
2023/09/16 08:59:26;;;;;;;7.90;7.20;;;18.90;99.90;;;;;;5051026;28;20446;-70
2023/09/16 09:01:54;;;;;;;8.43;7.67;;;19.00;99.90;;;;;;5054960;28;20462;-70
2023/09/16 09:04:21;;;;;;;8.87;7.97;;;19.10;99.90;;;;;;5055601;28;20454;-70
2023/09/16 09:06:49;;;;;;;10.30;6.57;;;19.20;99.90;;;;;;5053345;28;20476;-68
2023/09/16 09:09:16;;;;;;;10.07;7.83;;;19.20;99.90;;;;;;5047765;28;20450;-70
2023/09/16 09:11:45;;;;;;;9.30;7.07;;;19.40;99.90;;;;;;5038985;28;20783;-70
2023/09/16 09:14:13;;;;;;;5.83;5.33;;;19.50;99.90;;;;;;5045922;28;20441;-71
2023/09/16 09:16:43;;;;;;;7.10;6.40;;;19.60;99.90;;;;;;5041543;28;20553;-74
2023/09/16 09:19:14;;;;;;;9.17;7.17;;;19.80;99.90;;;;;;5052247;28;20443;-73
2023/09/16 09:21:44;;;;;;;6.40;5.73;;;19.80;99.90;;;;;;5053106;28;20442;-70
2023/09/16 09:24:11;;;;;;;7.77;6.97;;;20.00;99.90;;;;;;5051930;28;20532;-70
2023/09/16 09:26:37;;;;;;;6.83;6.13;;;20.10;99.90;;;;;;5046768;28;20461;-72
2023/09/16 09:29:09;;;;;;;7.43;6.73;;;20.40;99.90;;;;;;5049791;28;20553;-71
2023/09/16 09:31:36;;;;;;;8.57;6.87;;;20.70;99.90;;;;;;5046918;28;20896;-70
2023/09/16 09:34:03;;;;;;;8.70;6.43;;;20.90;99.90;;;;;;5056207;28;20933;-73
2023/09/16 09:36:32;;;;;;;6.87;6.17;;;20.80;99.90;;;;;;5044160;28;20545;-68
2023/09/16 09:38:59;;;;;;;7.20;6.50;;;21.00;99.90;;;;;;5050187;28;20528;-70
2023/09/16 09:41:26;;;;;;;6.43;5.73;;;21.10;99.90;;;;;;5049937;28;20434;-70
2023/09/16 09:43:54;;;;;;;8.30;5.87;;;21.20;99.90;;;;;;5045368;28;21015;-72
2023/09/16 09:46:22;;;;;;;7.20;5.83;;;21.40;99.90;;;;;;5038455;28;20480;-68
2023/09/16 09:48:49;;;;;;;7.40;6.70;;;21.70;99.90;;;;;;5047075;28;21053;-70
2023/09/16 09:51:30;;;;;;;6.77;6.17;;;22.00;99.90;;;;;;5042595;28;21005;-71
2023/09/16 09:53:58;;;;;;;7.07;6.37;;;22.40;99.90;;;;;;5043854;28;20438;-69
2023/09/16 09:56:25;;;;;;;6.40;5.80;;;22.50;99.90;;;;;;5059416;28;20801;-72
2023/09/16 09:58:52;;;;;;;5.50;5.00;;;22.80;99.90;;;;;;5050940;28;20462;-68
2023/09/16 10:01:19;;;;;;;8.17;5.80;;;23.80;99.90;;;;;;5047865;28;20951;-69
2023/09/16 10:03:49;;;;;;;5.33;4.83;;;24.70;99.90;;;;;;5040969;28;20878;-68
2023/09/16 10:06:17;;;;;;;8.10;6.33;;;25.70;99.90;;;;;;5050587;28;20863;-70
2023/09/16 10:08:46;;;;;;;6.43;4.90;;;26.40;96.30;;;;;;5051892;28;20516;-70
2023/09/16 10:11:13;;;;;;;5.97;5.00;;;27.10;94.40;;;;;;5046639;28;20584;-68
2023/09/16 10:13:40;;;;;;;7.40;5.27;;;27.50;93.00;;;;;;5045062;28;20499;-72
2023/09/16 10:16:07;;;;;;;7.30;5.20;;;27.70;92.40;;;;;;5051762;28;20912;-72
2023/09/16 10:18:35;;;;;;;4.73;4.07;;;27.80;92.10;;;;;;5051477;28;20883;-73
2023/09/16 10:21:02;;;;;;;6.03;5.37;;;28.00;91.60;;;;;;5049262;28;20434;-72
2023/09/16 10:23:29;;;;;;;7.30;5.27;;;28.00;91.80;;;;;;5045212;28;20930;-72
2023/09/16 10:25:58;;;;;;;5.47;4.97;;;27.90;91.20;;;;;;5041497;28;20464;-73
2023/09/16 10:28:26;;;;;;;8.73;5.10;;;27.80;91.50;;;;;;5050436;28;20496;-73
2023/09/16 10:30:54;;;;;;;4.93;4.13;;;28.00;91.60;;;;;;5038337;28;20525;-73
2023/09/16 10:33:23;;;;;;;5.60;5.00;;;27.90;91.40;;;;;;5046735;28;20443;-73
2023/09/16 10:35:50;;;;;;;7.20;5.10;;;27.50;91.90;;;;;;5051100;28;20465;-70
2023/09/16 10:38:17;;;;;;;6.33;4.93;;;27.30;92.00;;;;;;5040564;28;20541;-69
2023/09/16 10:40:45;;;;;;;7.60;5.53;;;27.10;92.40;;;;;;5042709;28;20805;-71
2023/09/16 10:43:15;;;;;;;5.70;4.60;;;26.60;92.80;;;;;;5043566;28;20446;-73
2023/09/16 10:45:42;;;;;;;5.90;4.70;;;26.60;93.20;;;;;;5051920;28;20490;-73
2023/09/16 10:48:09;;;;;;;4.33;3.93;;;26.60;93.70;;;;;;5045856;28;20553;-71
2023/09/16 10:50:37;;;;;;;4.67;4.27;;;26.30;93.90;;;;;;5044884;28;20462;-71
2023/09/16 10:53:10;;;;;;;5.70;4.23;;;26.20;93.40;;;;;;5044039;28;20944;-72
2023/09/16 10:55:45;;;;;;;5.67;4.23;;;26.00;93.90;;;;;;5045277;28;20917;-73
2023/09/16 10:58:21;;;;;;;4.40;4.00;;;26.00;93.60;;;;;;5047023;28;21011;-73
2023/09/16 11:00:53;;;;;;;5.10;3.97;;;25.90;93.70;;;;;;5050395;28;20477;-72
2023/09/16 11:03:24;;;;;;;4.23;3.93;;;25.80;93.50;;;;;;5043482;28;20932;-73
2023/09/16 11:05:53;;;;;;;5.70;4.40;;;25.70;93.70;;;;;;5051208;28;20951;-71
2023/09/16 11:08:20;;;;;;;5.23;4.30;;;25.80;93.90;;;;;;5047840;28;20486;-73
2023/09/16 11:10:47;;;;;;;4.80;4.30;;;25.90;93.80;;;;;;5050764;28;20528;-72
2023/09/16 11:13:15;;;;;;;4.23;3.83;;;25.80;93.50;;;;;;5047116;28;20431;-74
2023/09/16 11:15:42;;;;;;;5.70;4.07;;;25.60;93.60;;;;;;5048498;28;21029;-72
2023/09/16 11:18:10;;;;;;;3.97;3.60;;;25.70;94.10;;;;;;5041865;28;20514;-72
2023/09/16 11:20:39;;;;;;;5.40;4.90;;;25.80;94.10;;;;;;5044631;28;20525;-70
2023/09/16 11:23:07;;;;;;;5.60;4.10;;;25.80;93.70;;;;;;5045234;28;20803;-76
2023/09/16 11:25:35;;;;;;;3.40;3.10;;;25.60;93.10;;;;;;5043582;28;20863;-73
2023/09/16 11:28:03;;;;;;;4.27;3.90;;;25.70;93.80;;;;;;5035279;28;20569;-70
2023/09/16 11:30:33;;;;;;;4.63;4.17;;;25.80;94.10;;;;;;5041118;28;20507;-71
2023/09/16 11:33:26;;;;;;;4.53;4.13;;;25.80;93.90;;;;;;5041761;28;20446;-71
2023/09/16 11:36:14;;;;;;;9.23;4.50;;;25.70;94.00;;;;;;5054846;28;20557;-73
2023/09/16 11:38:54;;;;;;;6.90;4.07;;;25.60;94.20;;;;;;5054831;28;20488;-71
2023/09/16 11:41:21;;;;;;;8.10;4.83;;;25.50;94.40;;;;;;5053018;28;20466;-72
2023/09/16 11:43:49;;;;;;;6.67;4.60;;;25.50;94.10;;;;;;5051574;28;20437;-72
2023/09/16 11:46:17;;;;;;;6.63;4.17;;;25.50;93.70;;;;;;5059299;28;20471;-73
2023/09/16 11:48:52;;;;;;;3.73;3.43;;;25.50;93.80;;;;;;5060904;28;20495;-74
2023/09/16 11:51:22;;;;;;;5.10;3.97;;;25.40;93.30;;;;;;5057006;28;20476;-70
2023/09/16 11:53:50;;;;;;;4.43;4.03;;;25.50;93.30;;;;;;5058829;28;20449;-71
2023/09/16 11:56:19;;;;;;;5.80;4.93;;;25.70;93.50;;;;;;5052733;28;20556;-71
2023/09/16 11:58:47;;;;;;;4.20;3.80;;;25.80;93.50;;;;;;5046330;28;20449;-73
2023/09/16 12:01:23;;;;;;;3.53;3.23;;;25.70;93.30;;;;;;5047144;28;20525;-73
2023/09/16 12:03:50;;;;;;;5.10;3.83;;;25.60;93.10;;;;;;5054171;28;20441;-70
2023/09/16 12:06:21;;;;;;;4.33;3.93;;;25.60;92.80;;;;;;5052992;28;20466;-71
2023/09/16 12:08:49;;;;;;;5.20;4.70;;;25.60;93.00;;;;;;5049536;28;20510;-71
2023/09/16 12:11:29;;;;;;;7.63;3.90;;;25.60;92.90;;;;;;5043221;28;20806;-71
2023/09/16 12:13:58;;;;;;;4.17;3.77;;;25.60;92.90;;;;;;5055083;28;20488;-72
2023/09/16 12:16:28;;;;;;;4.83;4.43;;;25.50;93.00;;;;;;5054464;28;20484;-73
2023/09/16 12:18:55;;;;;;;4.87;4.47;;;25.50;93.30;;;;;;5052537;28;20876;-72
2023/09/16 12:21:23;;;;;;;5.73;4.20;;;25.50;93.80;;;;;;5043977;28;20862;-70
2023/09/16 12:23:52;;;;;;;4.93;3.93;;;25.60;94.10;;;;;;5050485;28;20515;-71
2023/09/16 12:26:31;;;;;;;5.57;3.30;;;25.60;94.10;;;;;;5053630;28;20454;-69
2023/09/16 12:29:05;;;;;;;4.37;3.97;;;25.60;93.60;;;;;;5044820;28;20539;-68
2023/09/16 12:31:34;;;;;;;4.77;4.33;;;25.60;93.40;;;;;;5048335;28;20457;-72
2023/09/16 12:34:01;;;;;;;4.90;4.40;;;25.60;93.50;;;;;;5047289;28;20516;-72
2023/09/16 12:36:29;;;;;;;5.17;4.20;;;25.70;93.50;;;;;;5047199;28;20476;-73
2023/09/16 12:38:59;;;;;;;6.37;4.67;;;25.70;93.40;;;;;;5051578;28;20460;-75
2023/09/16 12:41:27;;;;;;;6.40;4.60;;;25.70;93.40;;;;;;5048344;28;20442;-72
2023/09/16 12:43:57;;;;;;;9.53;5.43;;;25.70;92.70;;;;;;5052780;28;21003;-73
2023/09/16 12:46:25;;;;;;;4.20;3.80;;;25.80;93.00;;;;;;5038110;28;20454;-71
2023/09/16 12:48:55;;;;;;;6.50;4.10;;;25.80;93.10;;;;;;5046055;28;20484;-73
2023/09/16 12:51:23;;;;;;;4.97;4.47;;;25.90;92.90;;;;;;5045009;28;20447;-74